Time;durP1;ratioP1;P1;durP2;ratioP2;P2;SDS_P1;SDS_P2;PMS_P1;PMS_P2;Temp;Humidity;BMP_temperature;BMP_pressure;BME280_temperature;BME280_humidity;BME280_pressure;Samples;Min_cycle;Max_cycle;Signal;HPM_P1;HPM_P2
2022/11/25 00:02:25;;;;;;;95.60;48.70;;;;;;;1.24;90.64;98803.54;2279879;78;20941;-79
2022/11/25 00:05:27;;;;;;;103.63;51.73;;;;;;;1.26;90.65;98803.20;2279702;78;20946;-79
2022/11/25 00:08:26;;;;;;;93.17;47.00;;;;;;;1.30;90.57;98803.83;2280069;78;21250;-80
2022/11/25 00:11:26;;;;;;;90.83;44.63;;;;;;;1.33;90.55;98805.66;2277925;78;20962;-80
2022/11/25 00:14:27;;;;;;;93.83;45.87;;;;;;;1.32;90.62;98802.21;2276450;78;20958;-80
2022/11/25 00:17:27;;;;;;;94.50;45.33;;;;;;;1.33;90.72;98800.52;2276333;78;20977;-80
2022/11/25 00:20:28;;;;;;;91.60;44.33;;;;;;;1.33;90.67;98806.95;2276436;78;21258;-80
2022/11/25 00:23:28;;;;;;;100.23;46.80;;;;;;;1.35;90.81;98803.64;2276414;78;20910;-81
2022/11/25 00:26:28;;;;;;;93.57;47.27;;;;;;;1.39;90.79;98803.38;2276235;78;20942;-81
2022/11/25 00:29:29;;;;;;;103.70;45.60;;;;;;;1.42;91.08;98799.27;2276407;78;20914;-81
2022/11/25 00:32:29;;;;;;;101.67;46.50;;;;;;;1.46;91.07;98802.86;2276514;78;20903;-80
2022/11/25 00:35:30;;;;;;;100.87;44.30;;;;;;;1.46;91.15;98793.85;2276295;78;20974;-81
2022/11/25 00:38:30;;;;;;;107.10;43.73;;;;;;;1.49;90.88;98799.14;2276646;78;20926;-81
2022/11/25 00:44:49;;;;;;;125.10;46.73;;;;;;;1.51;91.16;98807.81;2276472;78;20879;-81
2022/11/25 00:47:50;;;;;;;121.40;47.10;;;;;;;1.50;91.25;98815.05;2276151;78;21013;-80
2022/11/25 00:50:50;;;;;;;135.40;45.93;;;;;;;1.54;91.63;98820.41;2276387;78;20915;-80
2022/11/25 00:53:51;;;;;;;156.67;45.27;;;;;;;1.54;91.63;98820.41;2276581;78;21322;-81
2022/11/25 00:56:51;;;;;;;143.67;45.23;;;;;;;1.59;91.91;98819.34;2276390;78;20963;-80
2022/11/25 00:59:52;;;;;;;164.30;48.27;;;;;;;1.61;91.95;98819.00;2276193;78;20883;-81
2022/11/25 01:02:52;;;;;;;142.07;45.80;;;;;;;1.65;92.01;98809.73;2276355;78;20895;-80
2022/11/25 01:05:52;;;;;;;150.57;44.00;;;;;;;1.65;91.86;98806.75;2276490;78;20931;-80
2022/11/25 01:08:53;;;;;;;164.60;45.80;;;;;;;1.68;92.01;98809.47;2276311;78;20910;-81
2022/11/25 01:11:53;;;;;;;157.70;44.63;;;;;;;1.68;92.04;98808.59;2276010;78;20981;-81
2022/11/25 01:14:54;;;;;;;147.40;44.63;;;;;;;1.71;92.05;98802.30;2276286;78;20961;-81
2022/11/25 01:17:54;;;;;;;132.77;46.70;;;;;;;1.72;92.05;98810.09;2276213;78;20939;-81
2022/11/25 01:20:54;;;;;;;142.20;44.60;;;;;;;1.74;92.22;98809.78;2276322;78;20938;-81
2022/11/25 01:23:55;;;;;;;155.57;45.67;;;;;;;1.76;92.20;98804.70;2276475;78;21322;-82
2022/11/25 01:26:55;;;;;;;140.33;46.03;;;;;;;1.78;92.27;98816.83;2276025;78;20914;-80
2022/11/25 01:29:56;;;;;;;187.20;48.40;;;;;;;1.79;92.24;98807.02;2276255;78;20875;-81
2022/11/25 01:32:56;;;;;;;164.63;49.53;;;;;;;1.81;92.19;98814.80;2276446;78;20879;-79
2022/11/25 01:35:56;;;;;;;150.13;47.33;;;;;;;1.82;92.12;98812.70;2276350;78;21314;-80
2022/11/25 01:38:57;;;;;;;207.20;50.50;;;;;;;1.81;92.11;98818.26;2276348;78;20903;-80
2022/11/25 01:41:57;;;;;;;174.40;52.00;;;;;;;1.80;92.06;98822.05;2276275;78;20860;-80
2022/11/25 01:44:58;;;;;;;162.23;50.83;;;;;;;1.81;92.29;98818.26;2276379;78;20895;-81
2022/11/25 01:47:58;;;;;;;171.53;49.03;;;;;;;1.84;92.35;98828.69;2275943;78;20978;-79
2022/11/25 01:50:59;;;;;;;164.60;50.77;;;;;;;1.86;92.35;98824.49;2276469;78;20926;-80
2022/11/25 01:53:59;;;;;;;191.63;50.33;;;;;;;1.88;92.45;98825.45;2276251;78;20953;-81
2022/11/25 01:56:59;;;;;;;203.50;50.10;;;;;;;1.90;92.40;98823.82;2276703;78;20903;-79
2022/11/25 02:00:02;;;;;;;199.50;53.37;;;;;;;1.93;92.47;98829.92;2277536;78;20914;-78
2022/11/25 02:03:02;;;;;;;178.33;54.37;;;;;;;1.95;92.52;98828.30;2276684;78;20990;-81
2022/11/25 02:06:03;;;;;;;226.50;50.80;;;;;;;1.98;94.35;98822.00;2276411;78;20935;-81
2022/11/25 02:09:04;;;;;;;181.27;49.60;;;;;;;2.23;93.24;98823.56;2276790;78;20911;-80
2022/11/25 02:12:04;;;;;;;244.53;62.07;;;;;;;2.19;92.64;98827.70;2277801;78;20923;-80
2022/11/25 02:15:04;;;;;;;250.00;51.57;;;;;;;2.14;92.25;98827.02;2280089;78;20938;-80
2022/11/25 02:18:05;;;;;;;187.17;51.27;;;;;;;2.12;92.39;98830.81;2279923;78;20959;-81
2022/11/25 02:21:06;;;;;;;163.23;49.70;;;;;;;2.08;92.25;98830.20;2280092;78;21310;-81
2022/11/25 02:24:05;;;;;;;221.10;51.10;;;;;;;2.08;92.42;98830.61;2280176;78;20871;-80
2022/11/25 02:27:06;;;;;;;181.50;47.73;;;;;;;2.08;92.40;98831.89;2280004;78;21262;-82
2022/11/25 02:30:06;;;;;;;188.53;48.67;;;;;;;2.08;92.39;98825.46;2280214;78;21325;-80
2022/11/25 02:33:07;;;;;;;167.07;48.43;;;;;;;2.05;92.47;98833.92;2279906;78;21329;-80
2022/11/25 02:36:07;;;;;;;157.00;49.83;;;;;;;2.07;92.65;98821.13;2280030;78;21325;-80
2022/11/25 02:39:08;;;;;;;129.27;50.30;;;;;;;2.07;92.80;98821.13;2280130;78;21290;-80
2022/11/25 02:42:08;;;;;;;125.23;48.03;;;;;;;2.11;92.97;98822.61;2279782;78;20918;-79
2022/11/25 02:45:08;;;;;;;148.53;51.30;;;;;;;2.13;92.80;98824.85;2279687;78;20899;-79
2022/11/25 02:48:09;;;;;;;139.90;48.77;;;;;;;2.18;92.96;98826.34;2279716;78;20946;-79
2022/11/25 02:51:09;;;;;;;167.70;51.27;;;;;;;2.14;92.59;98825.73;2279825;78;21309;-80
2022/11/25 02:54:10;;;;;;;148.53;49.57;;;;;;;2.09;92.58;98828.51;2279804;78;20923;-80
2022/11/25 02:57:10;;;;;;;195.17;50.43;;;;;;;2.11;92.82;98832.03;2279837;78;20902;-81
2022/11/25 03:00:11;;;;;;;174.73;49.33;;;;;;;2.11;92.82;98832.03;2280203;78;20926;-82
2022/11/25 03:03:11;;;;;;;165.50;51.13;;;;;;;2.12;93.01;98836.38;2280291;78;20938;-80
2022/11/25 03:06:11;;;;;;;247.63;51.60;;;;;;;2.15;93.04;98839.08;2279278;78;21302;-79
2022/11/25 03:09:12;;;;;;;229.77;49.10;;;;;;;2.18;93.13;98840.51;2280202;78;21286;-79
2022/11/25 03:12:18;;;;;;;209.83;50.40;;;;;;;2.14;92.88;98847.22;2280254;78;20903;-81
2022/11/25 03:15:19;;;;;;;221.77;49.43;;;;;;;2.11;92.83;98844.91;2280505;78;20918;-81
2022/11/25 03:18:19;;;;;;;184.30;49.13;;;;;;;2.06;93.06;98855.00;2279827;78;20981;-80
2022/11/25 03:21:19;;;;;;;175.07;48.87;;;;;;;2.11;93.52;98850.06;2280722;78;21230;-80
2022/11/25 03:24:20;;;;;;;255.37;50.93;;;;;;;2.13;93.41;98850.60;2280096;78;20864;-79
2022/11/25 03:27:20;;;;;;;187.27;49.33;;;;;;;2.15;93.29;98850.67;2280244;78;20911;-81
2022/11/25 03:30:21;;;;;;;183.57;50.30;;;;;;;2.19;93.52;98855.14;2280609;78;20891;-81
2022/11/25 03:33:21;;;;;;;199.37;49.00;;;;;;;2.20;93.26;98855.22;2280195;78;20927;-81
2022/11/25 03:36:21;;;;;;;187.83;49.03;;;;;;;2.21;93.39;98852.23;2280486;78;20907;-81
2022/11/25 03:39:22;;;;;;;186.40;48.20;;;;;;;2.22;93.13;98860.43;2280390;78;20954;-82
2022/11/25 03:42:22;;;;;;;172.07;49.60;;;;;;;2.17;93.01;98861.52;2280273;78;20902;-82
2022/11/25 03:45:23;;;;;;;164.90;49.37;;;;;;;2.16;93.09;98866.19;2280141;78;20903;-83
2022/11/25 03:48:23;;;;;;;160.90;47.30;;;;;;;2.13;93.09;98869.03;2279800;78;20934;-80
2022/11/25 03:51:24;;;;;;;183.40;46.97;;;;;;;2.13;93.09;98869.03;2280560;78;21290;-82
2022/11/25 03:54:24;;;;;;;185.43;49.40;;;;;;;2.08;93.10;98868.83;2280400;78;20938;-80
2022/11/25 03:57:25;;;;;;;214.43;49.90;;;;;;;2.03;93.29;98864.28;2280557;78;21081;-79
2022/11/25 04:00:25;;;;;;;213.63;47.87;;;;;;;2.07;93.67;98871.33;2280669;78;20891;-81
2022/11/25 04:03:31;;;;;;;228.30;50.20;;;;;;;2.07;93.48;98872.62;2281695;78;20930;-80
2022/11/25 04:06:32;;;;;;;222.37;48.73;;;;;;;2.06;93.47;98873.43;2282158;78;20859;-81
2022/11/25 04:09:32;;;;;;;221.40;48.33;;;;;;;2.03;93.61;98874.58;2282380;78;21336;-82
2022/11/25 04:12:48;;;;;;;229.53;50.07;;;;;;;2.03;93.88;98873.30;2259475;78;20949;-82
2022/11/25 04:15:48;;;;;;;207.97;49.40;;;;;;;2.04;93.97;98863.06;2235576;79;20937;-80
2022/11/25 04:18:51;;;;;;;220.30;48.97;;;;;;;2.11;94.26;98866.39;2236552;80;20961;-81
2022/11/25 04:21:52;;;;;;;260.37;49.47;;;;;;;2.16;94.17;98869.17;2236793;80;20917;-80
2022/11/25 04:24:52;;;;;;;249.00;70.27;;;;;;;2.14;93.78;98866.94;2236785;79;20894;-81
2022/11/25 04:27:52;;;;;;;189.90;54.03;;;;;;;2.14;93.98;98872.08;2235806;80;20949;-82
2022/11/25 04:30:52;;;;;;;242.27;52.20;;;;;;;2.17;93.91;98875.68;2235640;80;20882;-82
2022/11/25 04:33:53;;;;;;;221.10;50.63;;;;;;;2.19;94.03;98870.59;2235768;79;21381;-81
2022/11/25 04:36:53;;;;;;;212.37;50.67;;;;;;;2.22;93.91;98869.45;2236337;79;20926;-80
2022/11/25 04:39:54;;;;;;;228.40;51.50;;;;;;;2.23;93.92;98870.80;2236436;79;20922;-81
2022/11/25 04:42:54;;;;;;;276.70;49.07;;;;;;;2.24;93.81;98869.98;2235608;79;20939;-81
2022/11/25 04:45:54;;;;;;;229.30;49.00;;;;;;;2.24;93.70;98873.85;2235491;79;20941;-78
2022/11/25 04:48:55;;;;;;;185.20;50.53;;;;;;;2.22;93.70;98875.48;2235031;79;20990;-81
2022/11/25 04:51:55;;;;;;;189.27;44.97;;;;;;;2.23;93.80;98873.37;2235755;79;20894;-81
2022/11/25 04:54:56;;;;;;;210.77;47.43;;;;;;;2.22;93.66;98874.59;2233582;79;20977;-81
2022/11/25 04:57:56;;;;;;;217.43;45.63;;;;;;;2.22;93.90;98874.59;2233407;79;20879;-80
2022/11/25 05:00:57;;;;;;;190.50;45.13;;;;;;;2.22;93.70;98881.03;2234501;79;20910;-82
2022/11/25 05:03:57;;;;;;;234.00;46.37;;;;;;;2.20;93.68;98878.39;2235185;80;20960;-82
2022/11/25 05:06:57;;;;;;;217.33;46.30;;;;;;;2.21;93.68;98884.02;2234259;80;20926;-82
2022/11/25 05:09:58;;;;;;;213.13;47.97;;;;;;;2.22;93.71;98884.49;2235324;79;20922;-83
2022/11/25 05:12:58;;;;;;;225.70;46.60;;;;;;;2.22;93.71;98884.49;2258954;78;20993;-81
2022/11/25 05:15:59;;;;;;;227.97;46.90;;;;;;;2.22;93.71;98884.90;2278500;78;20928;-81
2022/11/25 05:18:59;;;;;;;170.47;46.13;;;;;;;2.22;93.84;98886.19;2278038;78;20935;-83
2022/11/25 05:22:00;;;;;;;161.87;44.97;;;;;;;2.23;93.82;98890.52;2277437;78;21609;-83
2022/11/25 05:25:00;;;;;;;155.93;47.07;;;;;;;2.21;93.58;98893.44;2277809;78;20906;-83
2022/11/25 05:28:00;;;;;;;199.93;46.37;;;;;;;2.63;98.46;98894.90;2278238;78;20911;-83
2022/11/25 05:31:01;;;;;;;182.70;48.87;;;;;;;2.59;93.97;98892.97;2278967;78;20891;-81
2022/11/25 05:34:01;;;;;;;142.27;50.87;;;;;;;2.43;93.56;98897.45;2278721;78;20970;-81
2022/11/25 05:37:02;;;;;;;148.27;50.13;;;;;;;2.37;93.72;98898.47;2277691;78;20903;-80
2022/11/25 05:40:03;;;;;;;161.93;50.27;;;;;;;2.42;94.03;98904.70;2278997;78;20894;-81
2022/11/25 05:43:05;;;;;;;174.13;51.70;;;;;;;2.38;93.52;98905.38;2278659;78;20879;-82
2022/11/25 05:46:06;;;;;;;136.67;48.77;;;;;;;2.34;93.39;98907.75;2279092;78;20954;-82
2022/11/25 05:49:06;;;;;;;145.63;48.30;;;;;;;2.26;93.52;98916.42;2279053;78;21167;-82
2022/11/25 05:52:07;;;;;;;142.20;47.77;;;;;;;2.21;93.74;98922.65;2279454;78;21362;-82
2022/11/25 05:55:07;;;;;;;135.93;48.93;;;;;;;2.17;93.75;98923.73;2278396;78;20927;-82
2022/11/25 05:58:07;;;;;;;124.70;46.37;;;;;;;2.11;93.94;98932.45;2277705;78;20915;-82
2022/11/25 06:01:08;;;;;;;118.00;47.80;;;;;;;2.08;93.91;98929.74;2279033;78;20934;-81
2022/11/25 06:04:08;;;;;;;108.73;44.17;;;;;;;2.02;94.06;98937.18;2278878;78;21353;-82
2022/11/25 06:07:09;;;;;;;109.60;45.60;;;;;;;2.01;94.15;98940.56;2277612;78;20903;-82
2022/11/25 06:10:09;;;;;;;100.67;43.50;;;;;;;2.03;94.41;98946.67;2278765;78;20958;-80
2022/11/25 06:13:09;;;;;;;109.00;46.00;;;;;;;2.04;94.32;98951.89;2275705;78;20954;-81
2022/11/25 06:16:10;;;;;;;120.77;47.93;;;;;;;1.98;94.18;98954.58;2274739;78;20923;-84
2022/11/25 06:19:10;;;;;;;119.90;46.57;;;;;;;2.04;94.55;98960.02;2274861;78;21001;-83
2022/11/25 06:22:11;;;;;;;118.67;49.47;;;;;;;2.06;94.42;98968.30;2274364;78;20915;-85
2022/11/25 06:25:11;;;;;;;111.63;47.53;;;;;;;2.09;94.31;98968.84;2274741;78;20982;-86
2022/11/25 06:28:11;;;;;;;111.07;45.47;;;;;;;2.07;94.11;98974.33;2273834;78;20906;-85
2022/11/25 06:31:12;;;;;;;103.13;45.33;;;;;;;2.09;94.18;98973.99;2274053;78;20957;-84
2022/11/25 06:34:12;;;;;;;111.90;49.10;;;;;;;2.12;94.18;98975.42;2274080;78;20930;-84
2022/11/25 06:37:13;;;;;;;110.30;49.03;;;;;;;2.14;94.11;98973.80;2274330;78;21342;-85
2022/11/25 06:40:13;;;;;;;124.83;51.17;;;;;;;2.13;94.25;98970.34;2274052;78;20915;-85
2022/11/25 06:43:14;;;;;;;134.33;54.30;;;;;;;2.20;94.13;98973.69;2274247;78;21006;-83
2022/11/25 06:46:23;;;;;;;135.90;55.40;;;;;;;2.30;94.31;98979.26;2276196;78;20953;-84
2022/11/25 06:49:23;;;;;;;136.37;55.73;;;;;;;2.37;93.96;98982.19;2255698;78;20950;-83
2022/11/25 06:52:23;;;;;;;127.83;53.10;;;;;;;2.44;93.97;98983.35;2275474;78;21331;-83
2022/11/25 06:55:23;;;;;;;121.90;56.83;;;;;;;2.51;93.76;98984.98;2274461;78;20974;-84
2022/11/25 06:58:24;;;;;;;123.30;52.53;;;;;;;2.56;93.62;98986.48;2274828;78;20927;-84
2022/11/25 07:01:24;;;;;;;108.93;49.20;;;;;;;2.67;93.58;98981.44;2274686;78;20907;-83
2022/11/25 07:04:25;;;;;;;114.97;51.37;;;;;;;2.73;93.15;98980.83;2274251;78;20935;-82
2022/11/25 07:07:25;;;;;;;106.07;49.63;;;;;;;2.79;92.96;98990.13;2274317;78;21298;-82
2022/11/25 07:10:26;;;;;;;107.03;50.90;;;;;;;2.80;92.51;98990.20;2273226;78;21290;-83
2022/11/25 07:13:26;;;;;;;108.47;49.23;;;;;;;2.82;92.58;98987.69;2275586;78;20954;-82
2022/11/25 07:16:26;;;;;;;119.77;51.03;;;;;;;2.91;92.59;98991.08;2277632;78;20902;-83
2022/11/25 07:19:32;;;;;;;108.67;48.67;;;;;;;2.95;92.19;98985.24;2277920;78;20883;-81
2022/11/25 07:22:30;;;;;;;107.87;51.70;;;;;;;3.00;92.16;98994.94;2277786;78;21314;-82
2022/11/25 07:25:31;;;;;;;116.37;52.47;;;;;;;3.02;91.84;98989.44;2278099;78;20898;-81
2022/11/25 07:28:31;;;;;;;115.17;51.47;;;;;;;3.07;91.66;98990.93;2278297;78;21425;-82
2022/11/25 07:31:32;;;;;;;111.23;51.37;;;;;;;3.12;91.51;98998.46;2277503;78;20902;-82
2022/11/25 07:34:32;;;;;;;118.67;52.23;;;;;;;3.14;91.30;98999.00;2277474;78;20942;-83
2022/11/25 07:37:32;;;;;;;121.27;51.90;;;;;;;3.16;91.11;99002.94;2277827;78;21120;-83
2022/11/25 07:40:33;;;;;;;128.10;54.37;;;;;;;3.22;91.21;99000.63;2277928;78;21599;-83
2022/11/25 07:43:33;;;;;;;124.93;52.97;;;;;;;3.31;90.98;99002.71;2278443;78;20910;-82
2022/11/25 07:46:34;;;;;;;129.47;53.03;;;;;;;3.34;90.82;99005.42;2277740;78;20946;-83
2022/11/25 07:49:37;;;;;;;113.90;52.07;;;;;;;3.43;90.88;99001.53;2277715;78;20917;-81
2022/11/25 07:52:38;;;;;;;125.40;53.67;;;;;;;3.52;90.49;99006.23;2277554;78;20899;-82
2022/11/25 07:55:38;;;;;;;129.90;55.40;;;;;;;3.51;89.89;99007.93;2277268;78;20938;-82
2022/11/25 07:58:38;;;;;;;116.30;51.10;;;;;;;3.51;90.03;99009.22;2276572;78;20954;-81
2022/11/25 08:01:39;;;;;;;146.40;52.80;;;;;;;3.51;89.79;99010.52;2276883;78;20907;-82
2022/11/25 08:04:39;;;;;;;130.43;50.03;;;;;;;3.58;89.98;99010.77;2277141;78;20915;-81
2022/11/25 08:07:39;;;;;;;141.13;54.07;;;;;;;3.63;89.63;99010.14;2276489;78;20898;-82
2022/11/25 08:10:40;;;;;;;128.67;53.93;;;;;;;3.69;89.74;99008.23;2276548;78;20922;-83
2022/11/25 08:13:40;;;;;;;125.07;53.07;;;;;;;3.74;89.54;99015.34;2274357;78;20958;-83
2022/11/25 08:16:41;;;;;;;136.27;60.57;;;;;;;3.80;89.21;99014.30;2273838;78;20954;-83
2022/11/25 08:19:41;;;;;;;127.47;58.83;;;;;;;3.85;89.12;99023.53;2274154;78;21327;-83
2022/11/25 08:22:42;;;;;;;123.77;58.87;;;;;;;3.88;88.91;99026.64;2274094;78;20903;-83
2022/11/25 08:25:42;;;;;;;128.07;58.67;;;;;;;3.99;89.00;99030.55;2274074;78;20926;-81
2022/11/25 08:28:42;;;;;;;130.83;56.70;;;;;;;4.02;88.46;99028.09;2275013;78;20974;-82
2022/11/25 08:31:43;;;;;;;124.40;59.80;;;;;;;4.05;88.38;99026.91;2275224;78;21038;-83
2022/11/25 08:34:43;;;;;;;129.07;58.67;;;;;;;4.13;88.41;99028.98;2274274;78;21002;-82
2022/11/25 08:37:44;;;;;;;118.40;54.37;;;;;;;4.19;87.71;99026.17;2274144;78;21283;-82
2022/11/25 08:40:45;;;;;;;117.83;53.27;;;;;;;4.20;87.71;99030.52;2274312;78;20898;-83
2022/11/25 08:43:44;;;;;;;113.73;52.83;;;;;;;4.29;87.69;99029.18;2274314;78;20915;-83
2022/11/25 08:46:45;;;;;;;105.63;52.27;;;;;;;4.31;87.04;99027.95;2274655;78;20914;-82
2022/11/25 08:49:45;;;;;;;109.77;52.13;;;;;;;4.40;87.33;99029.22;2275483;78;20918;-82
2022/11/25 08:52:46;;;;;;;105.73;47.73;;;;;;;4.51;86.96;99024.87;2274772;78;20946;-82
2022/11/25 08:55:46;;;;;;;102.67;47.97;;;;;;;4.58;86.66;99025.59;2273923;78;20942;-84
2022/11/25 08:58:48;;;;;;;114.83;54.83;;;;;;;4.63;86.23;99022.77;2274675;78;20934;-83
2022/11/25 09:01:47;;;;;;;110.77;53.90;;;;;;;4.58;85.79;99028.17;2274224;78;20899;-81
2022/11/25 09:04:47;;;;;;;126.67;58.80;;;;;;;4.56;86.02;99031.11;2274007;78;21315;-82
2022/11/25 09:07:48;;;;;;;123.70;56.07;;;;;;;4.47;85.67;99035.52;2273956;78;20907;-83
2022/11/25 09:10:48;;;;;;;124.27;54.60;;;;;;;4.39;85.48;99040.80;2273479;78;20986;-81
2022/11/25 09:13:49;;;;;;;125.87;58.43;;;;;;;4.27;85.68;99037.28;2274894;78;21570;-80
2022/11/25 09:16:52;;;;;;;121.53;55.87;;;;;;;4.26;85.81;99043.27;2276987;78;20910;-81
2022/11/25 09:19:51;;;;;;;133.70;63.47;;;;;;;4.32;86.16;99043.52;2256236;78;20941;-81
2022/11/25 09:22:52;;;;;;;130.53;61.13;;;;;;;4.44;85.92;99037.56;2276726;78;20978;-80
2022/11/25 09:25:55;;;;;;;124.60;59.43;;;;;;;4.63;86.24;99034.39;2277166;78;21397;-81
2022/11/25 09:28:56;;;;;;;111.90;54.70;;;;;;;4.84;85.82;99040.79;2277887;78;21388;-81
2022/11/25 09:31:56;;;;;;;112.57;54.30;;;;;;;5.05;85.35;99038.58;2277950;78;20898;-80
2022/11/25 09:34:57;;;;;;;115.50;58.60;;;;;;;5.19;84.71;99039.49;2278831;78;20930;-81
2022/11/25 09:37:57;;;;;;;123.97;62.03;;;;;;;5.38;84.40;99041.94;2277721;78;20997;-81
2022/11/25 09:40:58;;;;;;;120.43;57.97;;;;;;;5.61;83.95;99042.33;2277097;78;20911;-82
2022/11/25 09:47:17;;;;;;;105.63;50.47;;;;;;;5.68;83.02;99049.48;2276139;78;20911;-82
2022/11/25 09:50:17;;;;;;;109.40;56.07;;;;;;;5.66;82.31;99044.66;2276747;78;20943;-82
2022/11/25 09:53:18;;;;;;;117.57;60.57;;;;;;;5.67;82.61;99047.72;2276855;78;20935;-81
2022/11/25 09:56:18;;;;;;;122.57;61.73;;;;;;;5.74;82.42;99050.98;2276826;78;20926;-81
2022/11/25 09:59:19;;;;;;;130.33;64.97;;;;;;;5.78;82.22;99048.08;2277588;78;20950;-81
2022/11/25 10:02:19;;;;;;;118.03;60.47;;;;;;;5.87;82.18;99056.16;2277928;78;20883;-81
2022/11/25 10:05:19;;;;;;;102.73;53.63;;;;;;;5.96;82.07;99053.03;2277642;78;20927;-81
2022/11/25 10:08:20;;;;;;;109.30;56.10;;;;;;;6.08;81.50;99057.36;2277656;78;20915;-81
2022/11/25 10:11:23;;;;;;;105.40;53.00;;;;;;;6.08;81.26;99058.66;2276498;78;20971;-80
2022/11/25 10:14:24;;;;;;;119.60;57.63;;;;;;;5.99;80.35;99055.73;2248269;78;21341;-82
2022/11/25 10:17:24;;;;;;;112.47;59.10;;;;;;;5.83;80.93;99060.77;2231716;80;20942;-81
2022/11/25 10:20:25;;;;;;;120.87;60.87;;;;;;;5.79;81.28;99055.02;2232035;80;20918;-81
2022/11/25 10:23:25;;;;;;;128.93;62.83;;;;;;;5.74;81.46;99051.39;2232084;79;21350;-82
2022/11/25 10:26:25;;;;;;;115.37;59.27;;;;;;;5.79;81.83;99050.26;2232752;79;20947;-82
2022/11/25 10:29:26;;;;;;;115.87;57.97;;;;;;;5.81;81.39;99053.78;2232311;79;21012;-84
2022/11/25 10:32:26;;;;;;;123.43;59.20;;;;;;;5.80;81.57;99057.20;2232812;79;20957;-83
2022/11/25 10:35:29;;;;;;;112.87;57.07;;;;;;;5.79;81.51;99055.44;2233127;78;20941;-83
2022/11/25 10:38:29;;;;;;;106.20;57.50;;;;;;;5.76;81.43;99048.45;2210857;80;20941;-84
2022/11/25 10:41:32;;;;;;;105.93;55.83;;;;;;;5.76;81.43;99048.45;2232904;79;20945;-83
2022/11/25 10:44:32;;;;;;;99.77;54.23;;;;;;;5.79;81.39;99046.38;2211679;80;21361;-82
2022/11/25 10:47:33;;;;;;;100.93;54.03;;;;;;;5.74;81.51;99056.58;2233073;79;20981;-83
2022/11/25 10:50:33;;;;;;;106.30;55.97;;;;;;;5.69;81.41;99051.66;2232983;79;20972;-83
2022/11/25 10:53:34;;;;;;;102.10;53.87;;;;;;;5.69;81.67;99049.95;2233448;79;20953;-83
2022/11/25 10:56:34;;;;;;;110.83;53.67;;;;;;;5.73;81.54;99056.11;2233436;79;20882;-83
2022/11/25 10:59:34;;;;;;;96.03;49.53;;;;;;;5.79;81.45;99058.03;2233939;80;20992;-84
2022/11/25 11:02:35;;;;;;;107.77;54.50;;;;;;;5.79;81.19;99056.73;2233405;79;20965;-82
2022/11/25 11:05:35;;;;;;;112.47;56.07;;;;;;;5.76;81.21;99054.50;2232769;79;20933;-85
2022/11/25 11:08:36;;;;;;;106.73;53.53;;;;;;;5.79;81.30;99054.14;2232633;80;20914;-84
2022/11/25 11:11:36;;;;;;;102.23;51.23;;;;;;;5.78;81.15;99050.67;2232616;79;20938;-84
2022/11/25 11:14:36;;;;;;;110.53;55.53;;;;;;;5.78;81.19;99045.91;2261120;78;20978;-83
2022/11/25 11:17:37;;;;;;;107.47;54.17;;;;;;;5.81;81.38;99047.30;2277943;78;20942;-84
2022/11/25 11:20:37;;;;;;;107.23;55.87;;;;;;;5.82;81.34;99046.48;2278330;78;20867;-85
2022/11/25 11:23:38;;;;;;;105.53;58.20;;;;;;;5.84;81.47;99051.30;2278337;78;20894;-84
2022/11/25 11:26:38;;;;;;;115.83;61.97;;;;;;;5.84;81.42;99053.88;2278221;78;20986;-84
2022/11/25 11:29:39;;;;;;;120.43;64.13;;;;;;;5.81;81.21;99058.96;2278266;78;20938;-84
2022/11/25 11:32:39;;;;;;;112.93;61.73;;;;;;;5.79;81.50;99061.50;2277585;78;21345;-81
2022/11/25 11:35:39;;;;;;;108.33;57.70;;;;;;;5.81;81.29;99068.03;2277421;78;20934;-83
2022/11/25 11:38:40;;;;;;;116.73;58.80;;;;;;;5.78;81.52;99070.52;2278030;78;20918;-84
2022/11/25 11:41:40;;;;;;;106.47;55.97;;;;;;;5.78;81.28;99070.09;2278465;78;21259;-84
2022/11/25 11:44:41;;;;;;;109.27;57.87;;;;;;;5.79;81.31;99069.27;2278048;78;20914;-85
2022/11/25 11:47:41;;;;;;;112.50;59.43;;;;;;;5.76;81.34;99073.05;2278512;78;20895;-86
2022/11/25 11:50:41;;;;;;;110.17;59.27;;;;;;;5.79;81.47;99077.45;2278628;78;20914;-84
2022/11/25 11:53:42;;;;;;;105.73;57.30;;;;;;;5.86;81.33;99072.95;2278543;78;21001;-83
2022/11/25 11:56:42;;;;;;;93.73;52.70;;;;;;;5.85;81.23;99077.66;2278476;78;20962;-84
2022/11/25 11:59:45;;;;;;;94.57;50.53;;;;;;;5.87;81.08;99076.89;2278458;78;21365;-83
2022/11/25 12:02:43;;;;;;;88.23;49.73;;;;;;;5.86;81.36;99078.13;2278529;78;20961;-84
2022/11/25 12:05:44;;;;;;;87.70;47.73;;;;;;;5.88;81.22;99080.36;2279063;78;20907;-84
2022/11/25 12:08:44;;;;;;;83.33;46.03;;;;;;;5.94;81.17;99080.19;2278353;78;21601;-82
2022/11/25 12:11:44;;;;;;;80.57;46.17;;;;;;;5.99;81.05;99081.64;2278252;78;20918;-82
2022/11/25 12:14:45;;;;;;;76.00;45.17;;;;;;;6.03;81.10;99082.20;2275889;78;20955;-83
2022/11/25 12:17:45;;;;;;;73.97;42.10;;;;;;;6.06;80.68;99087.48;2273807;78;20950;-82
2022/11/25 12:20:46;;;;;;;78.00;43.97;;;;;;;5.97;80.63;99091.95;2274003;78;21526;-82
2022/11/25 12:23:46;;;;;;;78.13;43.70;;;;;;;5.78;80.82;99092.12;2274303;78;20951;-83
2022/11/25 12:26:46;;;;;;;72.30;44.17;;;;;;;5.72;81.22;99094.50;2274172;78;20986;-79
2022/11/25 12:29:47;;;;;;;76.30;44.03;;;;;;;5.62;81.32;99095.00;2274698;78;21005;-83
2022/11/25 12:32:48;;;;;;;80.07;43.23;;;;;;;5.60;81.74;99091.06;2275107;78;20887;-86
2022/11/25 12:35:48;;;;;;;73.33;43.30;;;;;;;5.62;82.00;99088.53;2274573;78;21327;-82
2022/11/25 12:38:48;;;;;;;75.60;43.13;;;;;;;5.66;82.13;99082.62;2273925;78;20903;-82
2022/11/25 12:41:48;;;;;;;68.07;42.20;;;;;;;5.69;81.96;99090.50;2274504;78;20950;-82
2022/11/25 12:44:49;;;;;;;72.43;41.40;;;;;;;5.68;82.03;99088.74;2273657;78;20942;-82
2022/11/25 12:47:49;;;;;;;68.10;40.70;;;;;;;5.70;82.17;99089.27;2273583;78;21425;-84
2022/11/25 12:50:50;;;;;;;69.90;40.13;;;;;;;5.64;82.23;99096.82;2273305;78;20902;-82
2022/11/25 12:53:53;;;;;;;76.53;43.10;;;;;;;5.59;82.34;99090.59;2273258;78;20951;-81
2022/11/25 12:56:52;;;;;;;73.73;42.70;;;;;;;5.61;82.96;99091.95;2253229;78;20915;-82
2022/11/25 12:59:53;;;;;;;64.33;40.63;;;;;;;5.61;82.79;99091.53;2273690;78;21363;-80
2022/11/25 13:02:53;;;;;;;70.87;42.10;;;;;;;5.55;82.80;99083.96;2273889;78;21239;-83
2022/11/25 13:05:54;;;;;;;72.37;41.17;;;;;;;5.51;82.95;99086.86;2273895;78;20899;-82
2022/11/25 13:08:54;;;;;;;74.50;40.00;;;;;;;5.46;83.03;99089.70;2273767;78;20938;-83
2022/11/25 13:11:54;;;;;;;66.00;40.63;;;;;;;5.42;83.12;99092.59;2273970;78;20963;-81
2022/11/25 13:14:55;;;;;;;76.33;44.27;;;;;;;5.31;83.38;99094.32;2272921;78;20939;-82
2022/11/25 13:17:55;;;;;;;73.37;41.27;;;;;;;5.29;83.92;99096.85;2272828;78;20931;-82
2022/11/25 13:20:56;;;;;;;72.13;42.97;;;;;;;5.25;84.05;99104.03;2273556;78;20926;-81
2022/11/25 13:23:57;;;;;;;66.03;38.43;;;;;;;5.25;84.22;99101.86;2273523;78;21004;-81
2022/11/25 13:26:57;;;;;;;66.97;37.77;;;;;;;5.25;84.23;99107.03;2272718;78;20899;-82
2022/11/25 13:29:57;;;;;;;69.37;37.63;;;;;;;5.28;84.35;99108.44;2272997;78;21002;-81
2022/11/25 13:32:57;;;;;;;63.47;35.00;;;;;;;5.30;84.40;99104.20;2272374;78;21367;-80
2022/11/25 13:35:58;;;;;;;69.10;34.30;;;;;;;5.31;84.42;99103.38;2271981;78;20966;-80
2022/11/25 13:38:58;;;;;;;67.80;36.53;;;;;;;5.31;84.57;99109.84;2272535;78;20935;-80
2022/11/25 13:41:59;;;;;;;77.20;41.60;;;;;;;5.31;84.54;99104.67;2272384;78;20886;-80
2022/11/25 13:44:59;;;;;;;84.40;41.93;;;;;;;5.32;84.48;99105.14;2274108;78;20977;-80
2022/11/25 13:47:59;;;;;;;77.30;40.50;;;;;;;5.34;84.46;99107.38;2274927;78;20961;-78
2022/11/25 13:51:00;;;;;;;74.20;40.23;;;;;;;5.50;84.98;99107.52;2274472;78;20934;-81
2022/11/25 13:54:00;;;;;;;80.30;38.97;;;;;;;5.49;84.42;99113.11;2274758;78;20946;-81
2022/11/25 13:57:01;;;;;;;77.90;40.73;;;;;;;5.44;84.38;99119.41;2273878;78;20977;-81
2022/11/25 14:00:01;;;;;;;76.13;43.60;;;;;;;5.36;84.24;99110.48;2274125;78;20950;-81